This is the latest recevied weather packets stored in our database for station/object F5PQL-4. If no packets are shown the sender has not sent any weather packets the latest 10 day(s).
| Time | Temp. | Humidity | Pressure | Rain* | Wind** | Luminosity | Snow |
|---|---|---|---|---|---|---|---|
| 1777975600 | 22.22° C | 57% | 1011.3 hPa | - | - | - | - |
| 1777974700 | 21.67° C | 59% | 1011.3 hPa | - | - | - | - |
| 1777973800 | 19.44° C | 65% | 1011.3 hPa | - | - | - | - |
| 1777972900 | 18.33° C | 70% | 1011.3 hPa | - | - | - | - |
| 1777972000 | 16.67° C | 75% | 1011.1 hPa | - | - | - | - |
| 1777971099 | 16.11° C | 76% | 1011.2 hPa | - | - | - | - |
| 1777970199 | 15.56° C | 78% | 1011.1 hPa | - | - | - | - |
| 1777969299 | 15.56° C | 78% | 1011.1 hPa | - | - | - | - |
| 1777968399 | 15.56° C | 77% | 1011 hPa | - | - | - | - |
| 1777967499 | 15.56° C | 77% | 1011 hPa | - | - | - | - |
| 1777966599 | 16.11° C | 77% | 1011 hPa | - | - | - | - |
| 1777965699 | 16.11° C | 79% | 1011 hPa | - | - | - | - |
| 1777964799 | 15.56° C | 80% | 1010.9 hPa | - | - | - | - |
| 1777963899 | 15° C | 81% | 1010.8 hPa | - | - | - | - |
| 1777962998 | 15.56° C | 81% | 1010.8 hPa | - | - | - | - |
| 1777962098 | 15° C | 82% | 1010.9 hPa | - | - | - | - |
| 1777961195 | 15° C | 82% | 1010.9 hPa | - | - | - | - |
| 1777960295 | 15° C | 83% | 1010.9 hPa | - | - | - | - |
| 1777959394 | 15° C | 82% | 1010.7 hPa | - | - | - | - |
| 1777958494 | 14.44° C | 82% | 1010.8 hPa | - | - | - | - |
| 1777957594 | 14.44° C | 82% | 1010.6 hPa | - | - | - | - |
| 1777956694 | 14.44° C | 82% | 1010.9 hPa | - | - | - | - |
| 1777955794 | 14.44° C | 82% | 1010.8 hPa | - | - | - | - |
| 1777954894 | 14.44° C | 83% | 1010.9 hPa | - | - | - | - |
| 1777953994 | 14.44° C | 82% | 1011.1 hPa | - | - | - | - |
* Rain since midnight (hover to see other rain measurements)
** Current wind speed in m/s (hover to see current wind gust speed)